Map

Track Data

SID SEASON NUMBER BASIN SUBBASIN NAME ISO_TIME NATURE LAT LON WMO_WIND WMO_PRES WMO_AGENCY TRACK_TYPE DIST2LAND LANDFALL IFLAG USA_AGENCY USA_ATCF_ID USA_LAT USA_LON USA_RECORD USA_STATUS USA_WIND USA_PRES USA_SSHS USA_R34_NE USA_R34_SE USA_R34_SW USA_R34_NW USA_R50_NE USA_R50_SE USA_R50_SW USA_R50_NW USA_R64_NE USA_R64_SE USA_R64_SW USA_R64_NW USA_POCI USA_ROCI USA_RMW USA_EYE TOKYO_LAT TOKYO_LON TOKYO_GRADE TOKYO_WIND TOKYO_PRES TOKYO_R50_DIR TOKYO_R50_LONG TOKYO_R50_SHORT TOKYO_R30_DIR TOKYO_R30_LONG TOKYO_R30_SHORT TOKYO_LAND CMA_LAT CMA_LON CMA_CAT CMA_WIND CMA_PRES HKO_LAT HKO_LON HKO_CAT HKO_WIND HKO_PRES NEWDELHI_LAT NEWDELHI_LON NEWDELHI_GRADE NEWDELHI_WIND NEWDELHI_PRES NEWDELHI_CI NEWDELHI_DP NEWDELHI_POCI REUNION_LAT REUNION_LON REUNION_TYPE REUNION_WIND REUNION_PRES REUNION_TNUM REUNION_CI REUNION_RMW REUNION_R34_NE REUNION_R34_SE REUNION_R34_SW REUNION_R34_NW REUNION_R50_NE REUNION_R50_SE REUNION_R50_SW REUNION_R50_NW REUNION_R64_NE REUNION_R64_SE REUNION_R64_SW REUNION_R64_NW BOM_LAT BOM_LON BOM_TYPE BOM_WIND BOM_PRES BOM_TNUM BOM_CI BOM_RMW BOM_R34_NE BOM_R34_SE BOM_R34_SW BOM_R34_NW BOM_R50_NE BOM_R50_SE BOM_R50_SW BOM_R50_NW BOM_R64_NE BOM_R64_SE BOM_R64_SW BOM_R64_NW BOM_ROCI BOM_POCI BOM_EYE BOM_POS_METHOD BOM_PRES_METHOD NADI_LAT NADI_LON NADI_CAT NADI_WIND NADI_PRES WELLINGTON_LAT WELLINGTON_LON WELLINGTON_WIND WELLINGTON_PRES DS824_LAT DS824_LON DS824_STAGE DS824_WIND DS824_PRES TD9636_LAT TD9636_LON TD9636_STAGE TD9636_WIND TD9636_PRES TD9635_LAT TD9635_LON TD9635_WIND TD9635_PRES TD9635_ROCI NEUMANN_LAT NEUMANN_LON NEUMANN_CLASS NEUMANN_WIND NEUMANN_PRES MLC_LAT MLC_LON MLC_CLASS MLC_WIND MLC_PRES USA_GUST BOM_GUST BOM_GUST_PER REUNION_GUST REUNION_GUST_PER USA_SEAHGT USA_SEARAD_NE USA_SEARAD_SE USA_SEARAD_SW USA_SEARAD_NW STORM_SPEED STORM_DIR
1901344S13052 1902 51 SI MM NOT_NAMED 1901-12-10 00:00:00 TS -13.0000 51.6000 main 179 168 _________O____ -1 -13.0000 51.6000 TC 3 252
1901344S13052 1902 51 SI MM NOT_NAMED 1901-12-10 03:00:00 TS -13.0500 51.4475 main 155 144 _________P____ -1 -13.0500 51.4475 TC 3 251
1901344S13052 1902 51 SI MM NOT_NAMED 1901-12-10 06:00:00 TS -13.1000 51.3000 main 144 134 _________O____ -1 -13.1000 51.3000 TC 3 250
1901344S13052 1902 51 SI MM NOT_NAMED 1901-12-10 09:00:00 TS -13.1500 51.1575 main 134 110 _________P____ -1 -13.1500 51.1575 TC 3 251
1901344S13052 1902 51 SI MM NOT_NAMED 1901-12-10 12:00:00 TS -13.2000 51.0000 main 110 89 _________O____ -1 -13.2000 51.0000 TC 4 255
1901344S13052 1902 51 SI MM NOT_NAMED 1901-12-10 15:00:00 TS -13.2425 50.8075 main 89 65 _________P____ -1 -13.2425 50.8075 TC 4 256
1901344S13052 1902 51 SI MM NOT_NAMED 1901-12-10 18:00:00 TS -13.3000 50.6000 main 65 43 _________O____ -1 -13.3000 50.6000 TC 4 248
1901344S13052 1902 51 SI MM NOT_NAMED 1901-12-10 21:00:00 TS -13.4000 50.4000 main 43 21 _________P____ -1 -13.4000 50.4000 TC 4 243
1901344S13052 1902 51 SI MM NOT_NAMED 1901-12-11 00:00:00 TS -13.5000 50.2000 main 21 0 _________O____ -1 -13.5000 50.2000 TC 4 249
1901344S13052 1902 51 SI MM NOT_NAMED 1901-12-11 03:00:00 TS -13.5500 50.0000 main 0 0 _________P____ -1 -13.5500 50.0000 TC 4 256
1901344S13052 1902 51 SI MM NOT_NAMED 1901-12-11 06:00:00 TS -13.6000 49.8000 main 0 0 _________O____ -1 -13.6000 49.8000 TC 4 249
1901344S13052 1902 51 SI MM NOT_NAMED 1901-12-11 09:00:00 TS -13.7000 49.5925 main 0 0 _________P____ -1 -13.7000 49.5925 TC 4 243
1901344S13052 1902 51 SI MM NOT_NAMED 1901-12-11 12:00:00 TS -13.8000 49.4000 main 0 0 _________O____ -1 -13.8000 49.4000 TC 4 245
1901344S13052 1902 51 SI MM NOT_NAMED 1901-12-11 15:00:00 TS -13.8575 49.2500 main 0 0 _________P____ -1 -13.8575 49.2500 TC 3 251
1901344S13052 1902 51 SI MM NOT_NAMED 1901-12-11 18:00:00 TS -13.9000 49.1000 main 0 0 _________O____ -1 -13.9000 49.1000 TC 3 255
1901344S13052 1902 51 SI MM NOT_NAMED 1901-12-11 21:00:00 TS -13.9425 48.9225 main 0 0 _________P____ -1 -13.9425 48.9225 TC 4 256
1901344S13052 1902 51 SI MM NOT_NAMED 1901-12-12 00:00:00 TS -14.0000 48.7000 main 0 0 _________O____ -1 -14.0000 48.7000 TC 5 254
1901344S13052 1902 51 SI MM NOT_NAMED 1901-12-12 03:00:00 TS -14.0850 48.4075 main 0 0 _________P____ -1 -14.0850 48.4075 TC 6 251
1901344S13052 1902 51 SI MM NOT_NAMED 1901-12-12 06:00:00 TS -14.2000 48.1000 main 0 0 _________O____ -1 -14.2000 48.1000 TC 6 243
1901344S13052 1902 51 SI MM NOT_NAMED 1901-12-12 09:00:00 TS -14.3574 47.8500 main 0 0 _________P____ -1 -14.3574 47.8500 TC 6 238
1901344S13052 1902 51 SI MM NOT_NAMED 1901-12-12 12:00:00 TS -14.5000 47.6000 main 15 15 _________O____ -1 -14.5000 47.6000 TC 6 249
1901344S13052 1902 51 SI MM NOT_NAMED 1901-12-12 15:00:00 TS -14.5575 47.3074 main 24 24 _________P____ -1 -14.5575 47.3074 TC 6 260
1901344S13052 1902 51 SI MM NOT_NAMED 1901-12-12 18:00:00 TS -14.6000 47.0000 main 46 46 _________O____ -1 -14.6000 47.0000 TC 6 257
1901344S13052 1902 51 SI MM NOT_NAMED 1901-12-12 21:00:00 TS -14.6925 46.7000 main 64 64 _________P____ -1 -14.6925 46.7000 TC 6 251
1901344S13052 1902 51 SI MM NOT_NAMED 1901-12-13 00:00:00 TS -14.8000 46.4000 main 70 70 _________O____ -1 -14.8000 46.4000 TC 6 251
1901344S13052 1902 51 SI MM NOT_NAMED 1901-12-13 03:00:00 TS -14.8925 46.0925 main 77 77 _________P____ -1 -14.8925 46.0925 TC 6 251
1901344S13052 1902 51 SI MM NOT_NAMED 1901-12-13 06:00:00 TS -15.0000 45.8000 main 92 84 _________O____ -1 -15.0000 45.8000 TC 6 244
1901344S13052 1902 51 SI MM NOT_NAMED 1901-12-13 09:00:00 TS -15.1424 45.5574 main 89 70 _________P____ -1 -15.1424 45.5574 TC 6 238
1901344S13052 1902 51 SI MM NOT_NAMED 1901-12-13 12:00:00 TS -15.3000 45.3000 main 74 67 _________O____ -1 -15.3000 45.3000 TC 6 241
1901344S13052 1902 51 SI MM NOT_NAMED 1901-12-13 15:00:00 TS -15.4500 44.9725 main 68 56 _________P____ -1 -15.4500 44.9725 TC 7 246
1901344S13052 1902 51 SI MM NOT_NAMED 1901-12-13 18:00:00 TS -15.6000 44.6000 main 69 67 _________O____ -1 -15.6000 44.6000 TC 8 248
1901344S13052 1902 51 SI MM NOT_NAMED 1901-12-13 21:00:00 TS -15.7501 44.2051 main 59 59 _________P____ -1 -15.7501 44.2051 TC 8 249
1901344S13052 1902 51 SI MM NOT_NAMED 1901-12-14 00:00:00 TS -15.9000 43.8000 main 78 _________O____ -1 -15.9000 43.8000 TC 8 249

About IBTrACS Database

This database is a web-friendly format of International Best Track Archive for Climate Stewardship (IBTrACS), a global best track data archive curated by NOAA dating back to 1842.

Updated: 2021-10-21